createdAt,value
2022-07-27T00:04:11.663Z,18.49
2022-07-27T00:09:34.173Z,18.35
2022-07-27T00:14:59.787Z,18.18
2022-07-27T00:25:58.920Z,18.37
2022-07-27T00:31:21.008Z,18.33
2022-07-27T00:36:43.254Z,18.17
2022-07-27T00:42:05.200Z,18.18
2022-07-27T00:47:27.856Z,18.13
2022-07-27T00:52:50.421Z,17.91
2022-07-27T00:58:13.078Z,18.09
2022-07-27T01:03:35.428Z,18.15
2022-07-27T01:09:19.000Z,18.19
2022-07-27T01:14:41.404Z,18.02
2022-07-27T01:20:03.300Z,18.01
2022-07-27T01:25:25.392Z,18.00
2022-07-27T01:30:48.042Z,18.00
2022-07-27T01:36:11.160Z,18.00
2022-07-27T01:41:33.390Z,17.85
2022-07-27T01:46:55.480Z,17.95
2022-07-27T01:52:17.155Z,17.74
2022-07-27T01:57:39.869Z,17.93
2022-07-27T02:03:02.049Z,18.02
2022-07-27T02:08:23.962Z,18.10
2022-07-27T02:13:48.080Z,18.24
2022-07-27T02:19:11.022Z,18.28
2022-07-27T02:24:33.884Z,18.54
2022-07-27T02:29:55.669Z,18.39
2022-07-27T02:35:19.792Z,18.53
2022-07-27T02:40:42.636Z,18.54
2022-07-27T02:46:07.292Z,18.64
2022-07-27T02:51:29.653Z,18.68
2022-07-27T02:56:57.212Z,18.73
2022-07-27T03:02:19.388Z,18.89
2022-07-27T03:07:41.296Z,19.06
2022-07-27T03:13:03.810Z,19.29
2022-07-27T03:18:26.330Z,19.48
2022-07-27T03:23:48.698Z,19.61
2022-07-27T03:29:11.258Z,19.51
2022-07-27T03:34:34.033Z,19.92
2022-07-27T03:39:55.790Z,19.99
2022-07-27T03:45:18.149Z,20.32
2022-07-27T03:50:40.489Z,20.50
2022-07-27T03:56:02.922Z,20.69
2022-07-27T04:01:25.565Z,20.60
2022-07-27T04:06:48.483Z,20.95
2022-07-27T04:12:10.884Z,21.17
2022-07-27T04:17:55.550Z,21.36
2022-07-27T04:23:15.744Z,21.56
2022-07-27T04:28:37.868Z,21.78
2022-07-27T04:33:59.920Z,22.00
2022-07-27T04:39:21.574Z,22.22
2022-07-27T04:44:43.492Z,22.77
2022-07-27T04:50:06.317Z,23.29
2022-07-27T04:55:28.327Z,24.43
2022-07-27T05:00:50.772Z,25.65
2022-07-27T05:06:13.006Z,26.16
2022-07-27T05:11:35.576Z,26.44
2022-07-27T05:16:57.753Z,26.39
2022-07-27T05:22:20.272Z,26.32
2022-07-27T05:27:51.018Z,27.29
2022-07-27T05:33:17.149Z,27.82
2022-07-27T05:38:40.043Z,28.27
2022-07-27T05:44:01.741Z,28.80
2022-07-27T05:49:24.253Z,29.25
2022-07-27T05:54:46.016Z,29.45
2022-07-27T06:00:09.751Z,29.75
2022-07-27T06:05:37.645Z,29.63
2022-07-27T06:10:59.647Z,29.46
2022-07-27T06:16:22.749Z,29.56
2022-07-27T06:21:47.911Z,29.66
2022-07-27T06:27:12.212Z,29.59
2022-07-27T06:32:34.291Z,29.63
2022-07-27T06:37:56.697Z,29.47
2022-07-27T06:43:23.239Z,29.51
2022-07-27T06:48:45.363Z,29.65
2022-07-27T06:54:07.497Z,29.80
2022-07-27T06:59:42.678Z,29.81
2022-07-27T07:05:06.161Z,29.90
2022-07-27T07:10:28.715Z,29.94
2022-07-27T07:15:51.394Z,30.00
2022-07-27T07:21:13.939Z,29.98
2022-07-27T07:26:37.099Z,29.94
2022-07-27T07:31:59.824Z,30.06
2022-07-27T07:37:22.062Z,29.95
2022-07-27T07:43:01.202Z,29.98
2022-07-27T07:48:23.713Z,29.94
2022-07-27T07:53:45.898Z,30.01
2022-07-27T07:59:08.291Z,29.80
2022-07-27T08:04:30.604Z,29.99
2022-07-27T08:09:52.598Z,30.36
2022-07-27T08:15:18.554Z,30.61
2022-07-27T08:20:44.324Z,30.26
2022-07-27T08:26:08.233Z,30.41
2022-07-27T08:31:52.274Z,30.78
2022-07-27T08:37:15.782Z,30.86
2022-07-27T08:42:43.710Z,30.64
2022-07-27T08:48:06.878Z,30.94
2022-07-27T08:53:35.680Z,31.04
2022-07-27T08:59:20.738Z,30.81
2022-07-27T09:04:43.537Z,30.73
2022-07-27T09:10:06.916Z,30.54
2022-07-27T09:15:34.542Z,30.65
2022-07-27T09:21:36.436Z,30.92
2022-07-27T09:27:06.337Z,30.74
2022-07-27T09:32:29.023Z,30.51
2022-07-27T09:37:52.303Z,30.24
2022-07-27T09:48:58.630Z,30.71
2022-07-27T09:54:20.474Z,30.72
2022-07-27T09:59:42.624Z,30.56
2022-07-27T10:05:05.406Z,29.97
2022-07-27T10:10:27.475Z,30.01
2022-07-27T10:15:50.139Z,29.94
2022-07-27T10:21:13.513Z,29.99
2022-07-27T10:26:39.352Z,30.20
2022-07-27T10:32:01.954Z,30.40
2022-07-27T10:37:33.995Z,30.26
2022-07-27T10:43:19.175Z,30.55
2022-07-27T10:48:48.813Z,30.61
2022-07-27T10:54:33.295Z,30.44
2022-07-27T11:00:08.639Z,30.51
2022-07-27T11:05:59.039Z,30.05
2022-07-27T11:11:19.358Z,30.16
2022-07-27T11:16:54.943Z,30.30
2022-07-27T11:28:32.846Z,30.54
2022-07-27T11:34:00.804Z,30.51
2022-07-27T11:45:09.925Z,30.80
2022-07-27T11:50:32.031Z,30.98
2022-07-27T11:55:54.882Z,30.88
2022-07-27T12:01:31.651Z,30.66
2022-07-27T12:07:14.106Z,30.55
2022-07-27T12:12:39.116Z,30.62
2022-07-27T12:18:01.757Z,30.58
2022-07-27T12:23:30.606Z,30.62
2022-07-27T12:29:14.216Z,30.83
2022-07-27T12:34:36.991Z,30.86
2022-07-27T12:40:01.547Z,30.68
2022-07-27T12:45:30.085Z,30.85
2022-07-27T12:51:03.694Z,30.71
2022-07-27T12:56:27.199Z,30.83
2022-07-27T13:01:51.847Z,30.73
2022-07-27T13:07:13.739Z,30.77
2022-07-27T13:12:37.656Z,30.83
2022-07-27T13:17:59.577Z,30.75
2022-07-27T13:23:22.005Z,30.47
2022-07-27T13:28:48.703Z,30.32
2022-07-27T13:34:21.540Z,30.20
2022-07-27T13:39:44.524Z,29.90
2022-07-27T13:45:10.363Z,29.60
2022-07-27T13:50:33.516Z,29.38
2022-07-27T13:55:58.858Z,29.19
2022-07-27T14:01:24.049Z,29.34
2022-07-27T14:06:54.847Z,29.45
2022-07-27T14:12:20.931Z,28.90
2022-07-27T14:17:44.210Z,28.98
2022-07-27T14:23:06.642Z,29.07
2022-07-27T14:28:30.934Z,28.93
2022-07-27T14:33:54.831Z,28.84
2022-07-27T14:39:18.187Z,28.80
2022-07-27T14:44:43.034Z,28.64
2022-07-27T14:50:07.489Z,28.81
2022-07-27T14:55:30.394Z,28.89
2022-07-27T15:00:56.173Z,28.93
2022-07-27T15:06:18.732Z,28.96
2022-07-27T15:11:51.379Z,28.93
2022-07-27T15:17:22.764Z,28.86
2022-07-27T15:22:45.462Z,28.53
2022-07-27T15:28:07.978Z,28.85
2022-07-27T15:33:30.725Z,28.79
2022-07-27T15:38:53.342Z,28.52
2022-07-27T15:44:20.082Z,28.47
2022-07-27T15:49:43.930Z,28.50
2022-07-27T15:55:07.040Z,28.43
2022-07-27T16:00:37.118Z,28.10
2022-07-27T16:06:01.617Z,28.37
2022-07-27T16:11:23.886Z,28.14
2022-07-27T16:16:49.161Z,28.22
2022-07-27T16:22:12.478Z,28.14
2022-07-27T16:27:34.716Z,27.99
2022-07-27T16:32:58.444Z,27.85
2022-07-27T16:38:20.585Z,27.71
2022-07-27T16:43:42.952Z,27.56
2022-07-27T16:49:05.312Z,27.42
2022-07-27T16:54:27.502Z,27.33
2022-07-27T16:59:49.728Z,27.19
2022-07-27T17:05:12.356Z,26.97
2022-07-27T17:10:34.794Z,26.82
2022-07-27T17:15:59.609Z,26.62
2022-07-27T17:21:47.335Z,26.55
2022-07-27T17:27:09.522Z,26.35
2022-07-27T17:32:34.020Z,26.08
2022-07-27T17:38:05.996Z,25.88
2022-07-27T17:43:30.145Z,25.77
2022-07-27T17:48:54.771Z,25.63
2022-07-27T17:54:17.168Z,25.53
2022-07-27T17:59:40.503Z,25.45
2022-07-27T18:05:04.293Z,25.37
2022-07-27T18:10:27.109Z,25.21
2022-07-27T18:15:50.855Z,25.25
2022-07-27T18:21:14.167Z,25.12
2022-07-27T18:27:00.068Z,24.66
2022-07-27T18:32:22.985Z,24.51
2022-07-27T18:37:45.956Z,24.34
2022-07-27T18:43:09.608Z,24.50
2022-07-27T18:48:32.486Z,24.21
2022-07-27T18:53:54.721Z,24.28
2022-07-27T18:59:17.505Z,24.47
2022-07-27T19:04:40.467Z,24.80
2022-07-27T19:10:05.631Z,24.46
2022-07-27T19:15:28.222Z,24.30
2022-07-27T19:20:50.934Z,24.04
2022-07-27T19:32:24.077Z,24.18
2022-07-27T19:37:45.934Z,24.11
2022-07-27T19:43:08.176Z,24.19
2022-07-27T19:48:30.858Z,24.01
2022-07-27T19:53:53.453Z,23.84
2022-07-27T19:59:16.315Z,23.73
2022-07-27T20:04:41.421Z,23.73
2022-07-27T20:10:05.963Z,23.64
2022-07-27T20:15:28.244Z,23.75
2022-07-27T20:20:50.629Z,23.83
2022-07-27T20:26:14.608Z,23.44
2022-07-27T20:31:44.154Z,23.53
2022-07-27T20:37:07.119Z,23.52
2022-07-27T20:42:33.322Z,23.47
2022-07-27T20:48:08.322Z,23.45
2022-07-27T20:53:37.637Z,23.42
2022-07-27T21:04:58.315Z,23.69
2022-07-27T21:10:29.081Z,23.41
2022-07-27T21:15:51.957Z,23.39
2022-07-27T21:21:46.480Z,23.43
2022-07-27T21:27:09.523Z,23.50
2022-07-27T21:32:31.409Z,23.47
2022-07-27T21:37:53.440Z,23.42
2022-07-27T21:43:15.610Z,23.24
2022-07-27T21:48:37.563Z,23.28
2022-07-27T21:53:59.931Z,23.32
2022-07-27T21:59:22.835Z,23.31
2022-07-27T22:04:44.899Z,23.23
2022-07-27T22:10:07.880Z,23.22
2022-07-27T22:15:30.082Z,23.20
2022-07-27T22:20:52.948Z,23.17
2022-07-27T22:26:23.275Z,22.77
2022-07-27T22:31:53.620Z,22.64
2022-07-27T22:37:25.299Z,22.63
2022-07-27T22:43:27.191Z,23.00
2022-07-27T22:48:57.968Z,22.74
2022-07-27T22:54:24.667Z,22.79
2022-07-27T22:59:56.211Z,22.59
2022-07-27T23:05:31.482Z,22.57
2022-07-27T23:11:05.974Z,22.71
2022-07-27T23:16:29.573Z,22.51
2022-07-27T23:21:56.192Z,22.64
2022-07-27T23:27:21.285Z,22.81
2022-07-27T23:32:43.745Z,22.81
2022-07-27T23:38:06.144Z,22.83
2022-07-27T23:43:28.929Z,22.76
2022-07-27T23:48:51.262Z,22.73
2022-07-27T23:54:14.032Z,22.66
2022-07-27T23:59:36.793Z,22.57
